Time;durP1;ratioP1;P1;durP2;ratioP2;P2;SDS_P1;SDS_P2;PMS_P1;PMS_P2;Temp;Humidity;BMP_temperature;BMP_pressure;BME280_temperature;BME280_humidity;BME280_pressure;Samples;Min_cycle;Max_cycle;Signal;HPM_P1;HPM_P2
2021/12/31 00:00:27;;;;;;;2.47;1.23;;;13.90;99.90;;;;;;5101180;28;20323;-79
2021/12/31 00:02:56;;;;;;;1.23;1.00;;;13.90;99.90;;;;;;5097056;28;20550;-79
2021/12/31 00:05:23;;;;;;;1.73;1.20;;;13.80;99.90;;;;;;5110180;28;20501;-79
2021/12/31 00:07:50;;;;;;;1.37;1.27;;;13.80;99.90;;;;;;5095331;28;20464;-80
2021/12/31 00:10:17;;;;;;;1.33;1.23;;;13.80;99.90;;;;;;5108198;28;20445;-80
2021/12/31 00:12:45;;;;;;;1.13;1.00;;;13.80;99.90;;;;;;5105359;28;20457;-79
2021/12/31 00:15:13;;;;;;;1.58;1.10;;;13.70;99.90;;;;;;5099691;28;20499;-79
2021/12/31 00:17:40;;;;;;;1.47;1.00;;;13.70;99.90;;;;;;5103745;28;20219;-79
2021/12/31 00:20:13;;;;;;;1.70;1.50;;;13.60;99.90;;;;;;5103355;28;20519;-79
2021/12/31 00:22:59;;;;;;;1.20;1.10;;;13.60;99.90;;;;;;5102839;28;20280;-79
2021/12/31 00:25:27;;;;;;;1.15;1.05;;;13.60;99.90;;;;;;5107920;28;20203;-79
2021/12/31 00:27:55;;;;;;;1.50;1.17;;;13.50;99.90;;;;;;5094900;28;20206;-79
2021/12/31 00:30:22;;;;;;;1.63;1.52;;;13.50;99.90;;;;;;5098779;28;20198;-79
2021/12/31 00:32:49;;;;;;;2.33;1.20;;;13.40;99.90;;;;;;5096466;28;20581;-79
2021/12/31 00:35:17;;;;;;;1.20;1.10;;;13.40;99.90;;;;;;5095956;28;20655;-79
2021/12/31 00:37:44;;;;;;;1.70;1.38;;;13.40;99.90;;;;;;5094453;28;20215;-79
2021/12/31 00:40:12;;;;;;;1.52;1.15;;;13.40;99.90;;;;;;5105709;28;20600;-79
2021/12/31 00:42:40;;;;;;;2.10;1.50;;;13.40;99.90;;;;;;5106229;28;20641;-79
2021/12/31 00:45:11;;;;;;;2.13;1.90;;;13.40;99.90;;;;;;5098400;28;20481;-79
2021/12/31 00:47:39;;;;;;;1.58;1.20;;;13.40;99.90;;;;;;5109401;28;20180;-79
2021/12/31 00:50:07;;;;;;;1.30;1.20;;;13.40;99.90;;;;;;5096777;28;20333;-79
2021/12/31 00:52:34;;;;;;;1.75;1.42;;;13.40;99.90;;;;;;5111866;28;20535;-79
2021/12/31 00:55:02;;;;;;;1.10;1.00;;;13.40;99.90;;;;;;5111686;28;20190;-78
2021/12/31 00:57:29;;;;;;;2.65;1.15;;;13.40;99.90;;;;;;5094616;28;20689;-79
2021/12/31 00:59:56;;;;;;;1.10;1.00;;;13.40;99.90;;;;;;5095472;28;20739;-79
2021/12/31 01:02:27;;;;;;;2.45;1.20;;;13.40;99.90;;;;;;5100575;28;20480;-79
2021/12/31 01:04:55;;;;;;;1.20;1.10;;;13.50;99.90;;;;;;5098898;28;20260;-79
2021/12/31 01:07:21;;;;;;;1.90;1.17;;;13.50;99.90;;;;;;5097497;28;20473;-79
2021/12/31 01:09:49;;;;;;;1.20;1.10;;;13.50;99.90;;;;;;5102816;28;20198;-79
2021/12/31 01:12:16;;;;;;;1.20;1.10;;;13.50;99.90;;;;;;5102412;28;20445;-79
2021/12/31 01:14:53;;;;;;;1.40;1.30;;;13.50;99.90;;;;;;5093712;28;20564;-79
2021/12/31 01:17:35;;;;;;;1.10;1.00;;;13.50;99.90;;;;;;5111888;28;20310;-79
2021/12/31 01:20:05;;;;;;;1.20;1.02;;;13.50;99.90;;;;;;5104302;28;20203;-79
2021/12/31 01:22:33;;;;;;;1.40;1.20;;;13.50;99.90;;;;;;5101118;28;20246;-79
2021/12/31 01:25:00;;;;;;;1.20;1.10;;;13.50;99.90;;;;;;5100279;28;20209;-79
2021/12/31 01:27:28;;;;;;;1.42;1.08;;;13.40;99.90;;;;;;5101097;28;20263;-80
2021/12/31 01:29:55;;;;;;;1.30;1.20;;;13.50;99.90;;;;;;5097419;28;20202;-79
2021/12/31 01:32:22;;;;;;;2.80;1.27;;;13.50;99.90;;;;;;5099815;28;20694;-79
2021/12/31 01:34:49;;;;;;;1.10;0.90;;;13.60;99.90;;;;;;5093771;28;20492;-79
2021/12/31 01:37:18;;;;;;;1.40;1.30;;;13.70;99.90;;;;;;5097168;28;20615;-79
2021/12/31 01:39:45;;;;;;;2.30;1.03;;;13.70;99.90;;;;;;5098217;28;20736;-79
2021/12/31 01:42:14;;;;;;;3.10;1.30;;;13.70;99.90;;;;;;5095928;28;20524;-79
2021/12/31 01:44:45;;;;;;;1.67;1.30;;;13.70;99.90;;;;;;5109812;28;20307;-79
2021/12/31 01:47:16;;;;;;;1.97;1.30;;;13.70;99.90;;;;;;5094283;28;20462;-79
2021/12/31 01:49:55;;;;;;;1.30;1.20;;;13.70;99.90;;;;;;5092487;28;21032;-79
2021/12/31 01:52:25;;;;;;;1.30;1.20;;;13.60;99.90;;;;;;5109507;28;20974;-80
2021/12/31 01:54:52;;;;;;;1.43;1.20;;;13.50;99.90;;;;;;5110869;28;20278;-79
2021/12/31 01:57:21;;;;;;;1.60;1.40;;;13.40;99.90;;;;;;5100707;28;20564;-79
2021/12/31 01:59:49;;;;;;;1.20;1.08;;;13.30;99.90;;;;;;5099709;28;20198;-78
2021/12/31 02:02:17;;;;;;;1.33;1.13;;;13.20;99.90;;;;;;5092742;28;20278;-79
2021/12/31 02:04:44;;;;;;;1.60;1.50;;;13.20;99.90;;;;;;5097663;28;20275;-79
2021/12/31 02:07:12;;;;;;;1.80;1.25;;;13.10;99.90;;;;;;5111272;28;20205;-79
2021/12/31 02:09:47;;;;;;;1.55;1.20;;;13.10;99.90;;;;;;5094985;28;20720;-79
2021/12/31 02:12:14;;;;;;;1.80;1.40;;;13.10;99.90;;;;;;5103200;28;20190;-79
2021/12/31 02:14:41;;;;;;;1.60;1.50;;;13.10;99.90;;;;;;5109998;28;20309;-79
2021/12/31 02:17:10;;;;;;;2.40;1.70;;;13.00;99.90;;;;;;5104939;28;20314;-79
2021/12/31 02:19:38;;;;;;;1.75;1.40;;;12.90;99.90;;;;;;5104431;28;20191;-78
2021/12/31 02:22:07;;;;;;;1.80;1.50;;;12.80;99.90;;;;;;5104310;28;20242;-79
2021/12/31 02:24:36;;;;;;;2.20;1.58;;;12.70;99.90;;;;;;5097147;28;20206;-79
2021/12/31 02:27:03;;;;;;;3.85;1.67;;;12.50;99.90;;;;;;5106826;28;20196;-79
2021/12/31 02:29:31;;;;;;;1.75;1.40;;;12.40;99.90;;;;;;5091637;28;20198;-79
2021/12/31 02:31:59;;;;;;;2.05;1.50;;;12.40;99.90;;;;;;5097313;28;20261;-78
2021/12/31 02:34:26;;;;;;;2.35;1.90;;;12.30;99.90;;;;;;5100048;28;20254;-78
2021/12/31 02:36:53;;;;;;;1.70;1.30;;;12.20;99.90;;;;;;5109673;28;20199;-78
2021/12/31 02:39:21;;;;;;;1.40;1.30;;;12.10;99.90;;;;;;5100818;28;20219;-77
2021/12/31 02:41:48;;;;;;;1.83;1.67;;;12.10;99.90;;;;;;5096197;28;20191;-77
2021/12/31 02:44:16;;;;;;;2.38;1.30;;;12.00;99.90;;;;;;5092010;28;20210;-78
2021/12/31 02:46:43;;;;;;;2.28;1.55;;;11.90;99.90;;;;;;5105052;28;20194;-77
2021/12/31 02:49:10;;;;;;;2.28;1.50;;;11.90;99.90;;;;;;5101546;28;20662;-77
2021/12/31 02:51:37;;;;;;;2.78;1.50;;;11.90;99.90;;;;;;5109080;28;20305;-77
2021/12/31 02:54:08;;;;;;;2.22;1.73;;;11.80;99.90;;;;;;5100877;28;20325;-77
2021/12/31 02:56:37;;;;;;;1.92;1.40;;;11.70;99.90;;;;;;5100824;28;20677;-79
2021/12/31 02:59:04;;;;;;;2.03;1.45;;;11.70;99.90;;;;;;5096262;28;20237;-79
2021/12/31 03:01:31;;;;;;;2.22;1.52;;;11.70;99.90;;;;;;5093291;28;20221;-79
2021/12/31 03:04:00;;;;;;;1.55;1.25;;;11.70;99.90;;;;;;5091297;28;20235;-79
2021/12/31 03:06:28;;;;;;;1.70;1.60;;;11.60;99.90;;;;;;5091846;28;20191;-79
2021/12/31 03:08:57;;;;;;;1.80;1.42;;;11.60;99.90;;;;;;5097591;28;20240;-79
2021/12/31 03:11:25;;;;;;;1.60;1.50;;;11.60;99.90;;;;;;5104167;28;20196;-79
2021/12/31 03:13:58;;;;;;;1.63;1.40;;;11.70;99.90;;;;;;5103087;28;20262;-79
2021/12/31 03:16:24;;;;;;;1.50;1.40;;;11.60;99.90;;;;;;5103180;28;20183;-79
2021/12/31 03:18:52;;;;;;;1.40;1.30;;;11.60;99.90;;;;;;5107958;28;20663;-79
2021/12/31 03:21:22;;;;;;;1.60;1.50;;;11.60;99.90;;;;;;5094268;28;20187;-79
2021/12/31 03:23:52;;;;;;;1.50;1.40;;;11.60;99.90;;;;;;5100187;28;20246;-79
2021/12/31 03:26:20;;;;;;;1.80;1.50;;;11.70;99.90;;;;;;5099793;28;20223;-79
2021/12/31 03:28:47;;;;;;;2.65;1.65;;;11.60;99.90;;;;;;5096339;28;20203;-79
2021/12/31 03:31:15;;;;;;;1.60;1.50;;;11.60;99.90;;;;;;5105658;28;20290;-79
2021/12/31 03:33:42;;;;;;;3.22;1.65;;;11.70;99.90;;;;;;5095509;28;20219;-79
2021/12/31 03:36:09;;;;;;;1.50;1.40;;;11.70;99.90;;;;;;5096110;28;20188;-79
2021/12/31 03:38:36;;;;;;;1.58;1.48;;;11.60;99.90;;;;;;5109633;28;20490;-78
2021/12/31 03:41:03;;;;;;;4.00;1.67;;;11.50;99.90;;;;;;5106409;28;20202;-78
2021/12/31 03:43:30;;;;;;;2.90;1.67;;;11.40;99.90;;;;;;5108804;28;20218;-78
2021/12/31 03:45:57;;;;;;;2.25;1.65;;;11.40;99.90;;;;;;5103044;28;20385;-79
2021/12/31 03:48:25;;;;;;;2.08;1.90;;;11.30;99.90;;;;;;5094858;28;20196;-78
2021/12/31 03:50:52;;;;;;;1.75;1.35;;;11.20;99.90;;;;;;5099822;28;20194;-78
2021/12/31 03:53:19;;;;;;;2.28;1.60;;;11.20;99.90;;;;;;5110327;28;20242;-79
2021/12/31 03:55:47;;;;;;;2.17;1.67;;;11.10;99.90;;;;;;5099789;28;20187;-78
2021/12/31 03:58:15;;;;;;;2.50;1.73;;;11.10;99.90;;;;;;5094204;28;20363;-78
2021/12/31 04:00:42;;;;;;;1.52;1.42;;;11.10;99.90;;;;;;5094187;28;20196;-77
2021/12/31 04:03:10;;;;;;;2.55;1.85;;;11.00;99.90;;;;;;5104777;28;20218;-77
2021/12/31 04:05:40;;;;;;;2.00;1.70;;;11.00;99.90;;;;;;5107295;28;20558;-78
2021/12/31 04:08:08;;;;;;;1.70;1.60;;;11.00;99.90;;;;;;5108809;28;20741;-78
2021/12/31 04:10:35;;;;;;;2.65;1.65;;;11.00;99.90;;;;;;5102525;28;20203;-79
2021/12/31 04:13:02;;;;;;;2.38;2.00;;;11.00;99.90;;;;;;5105322;28;20219;-78
2021/12/31 04:15:29;;;;;;;3.30;1.77;;;11.00;99.90;;;;;;5095700;28;20193;-78
2021/12/31 04:17:56;;;;;;;2.88;1.95;;;10.90;99.90;;;;;;5098014;28;20314;-78
2021/12/31 04:20:33;;;;;;;2.55;1.98;;;10.90;99.90;;;;;;5104535;28;20312;-79
2021/12/31 04:23:04;;;;;;;1.95;1.55;;;10.90;99.90;;;;;;5098706;28;20343;-79
2021/12/31 04:25:31;;;;;;;3.17;2.00;;;10.80;99.90;;;;;;5098539;28;20626;-78
2021/12/31 04:27:58;;;;;;;2.95;1.67;;;10.80;99.90;;;;;;5107459;28;20205;-78
2021/12/31 04:30:25;;;;;;;1.63;1.52;;;10.80;99.90;;;;;;5101332;28;20278;-79
2021/12/31 04:32:52;;;;;;;2.88;2.10;;;10.70;99.90;;;;;;5098860;28;20229;-79
2021/12/31 04:35:19;;;;;;;1.80;1.70;;;10.70;99.90;;;;;;5099329;28;20841;-78
2021/12/31 04:37:46;;;;;;;2.03;1.83;;;10.70;99.90;;;;;;5099032;28;20590;-78
2021/12/31 04:40:15;;;;;;;3.63;1.80;;;10.80;99.90;;;;;;5094417;28;20198;-79
2021/12/31 04:42:43;;;;;;;1.70;1.60;;;10.70;99.90;;;;;;5110010;28;20577;-79
2021/12/31 04:45:11;;;;;;;1.90;1.70;;;10.70;99.90;;;;;;5096928;28;20647;-79
2021/12/31 04:47:38;;;;;;;1.70;1.60;;;10.80;99.90;;;;;;5109298;28;20194;-78
2021/12/31 04:50:06;;;;;;;2.20;2.00;;;10.80;99.90;;;;;;5105166;28;20579;-79
2021/12/31 04:52:34;;;;;;;2.13;1.92;;;10.70;99.90;;;;;;5093616;28;20271;-78
2021/12/31 04:55:00;;;;;;;2.25;2.05;;;10.70;99.90;;;;;;5103812;28;20194;-79
2021/12/31 04:57:29;;;;;;;1.80;1.70;;;10.60;99.90;;;;;;5104323;28;20191;-79
2021/12/31 04:59:56;;;;;;;1.65;1.55;;;10.70;99.90;;;;;;5113817;28;20257;-79
2021/12/31 05:02:23;;;;;;;2.30;2.10;;;10.70;99.90;;;;;;5103855;28;20247;-79
2021/12/31 05:04:50;;;;;;;2.45;1.83;;;10.60;99.90;;;;;;5114081;28;20274;-79
2021/12/31 05:07:17;;;;;;;1.77;1.67;;;10.70;99.90;;;;;;5100308;28;20211;-79
2021/12/31 05:09:44;;;;;;;2.22;1.75;;;10.70;99.90;;;;;;5102142;28;20628;-78
2021/12/31 05:12:15;;;;;;;4.60;1.75;;;10.70;99.90;;;;;;5100011;28;20211;-76
2021/12/31 05:14:45;;;;;;;1.98;1.77;;;10.70;99.90;;;;;;5104364;28;20625;-75
2021/12/31 05:17:12;;;;;;;2.08;1.98;;;10.70;99.90;;;;;;5100367;28;20532;-76
2021/12/31 05:19:43;;;;;;;1.70;1.60;;;10.60;99.90;;;;;;5094694;28;20891;-76
2021/12/31 05:22:11;;;;;;;1.80;1.70;;;10.60;99.90;;;;;;5098946;28;20298;-76
2021/12/31 05:24:38;;;;;;;2.10;1.83;;;10.70;99.90;;;;;;5092821;28;20190;-76
2021/12/31 05:27:06;;;;;;;1.60;1.50;;;10.70;99.90;;;;;;5094455;28;20226;-76
2021/12/31 05:29:33;;;;;;;2.42;1.75;;;10.70;99.90;;;;;;5096760;28;20289;-76
2021/12/31 05:32:01;;;;;;;1.98;1.67;;;10.70;99.90;;;;;;5105221;28;20657;-76
2021/12/31 05:34:28;;;;;;;1.92;1.77;;;10.70;99.90;;;;;;5102100;28;20285;-76
2021/12/31 05:36:55;;;;;;;2.45;1.80;;;10.60;99.90;;;;;;5097790;28;20199;-77
2021/12/31 05:39:22;;;;;;;3.90;2.00;;;10.60;99.90;;;;;;5108360;28;20343;-76
2021/12/31 05:41:49;;;;;;;2.58;2.10;;;10.60;99.90;;;;;;5108768;28;20215;-76
2021/12/31 05:44:16;;;;;;;2.35;2.15;;;10.40;99.90;;;;;;5112505;28;20197;-76
2021/12/31 05:46:47;;;;;;;2.97;2.05;;;10.40;99.90;;;;;;5110689;28;20225;-75
2021/12/31 05:49:16;;;;;;;1.98;1.88;;;10.30;99.90;;;;;;5105448;28;20496;-75
2021/12/31 05:51:43;;;;;;;1.83;1.70;;;10.30;99.90;;;;;;5102827;28;20201;-76
2021/12/31 05:54:10;;;;;;;2.15;1.95;;;10.30;99.90;;;;;;5098273;28;20228;-76
2021/12/31 05:56:37;;;;;;;3.83;2.10;;;10.20;99.90;;;;;;5107162;28;20202;-76
2021/12/31 05:59:04;;;;;;;2.10;1.80;;;10.20;99.90;;;;;;5108528;28;20319;-75
2021/12/31 06:01:31;;;;;;;2.40;2.00;;;10.20;99.90;;;;;;5114430;28;20263;-76
2021/12/31 06:03:57;;;;;;;2.03;1.90;;;10.20;99.90;;;;;;5113356;28;20248;-76
2021/12/31 06:06:26;;;;;;;3.42;2.65;;;10.30;99.90;;;;;;5120876;28;20411;-75
2021/12/31 06:08:53;;;;;;;2.30;2.10;;;10.30;99.90;;;;;;5100998;28;20206;-76
2021/12/31 06:11:20;;;;;;;2.50;2.30;;;10.30;99.90;;;;;;5093548;28;20234;-76
2021/12/31 06:13:55;;;;;;;2.40;2.13;;;10.30;99.90;;;;;;5072532;28;20253;-76
2021/12/31 06:16:21;;;;;;;2.20;1.85;;;10.30;99.90;;;;;;5092215;28;20195;-76
2021/12/31 06:18:49;;;;;;;2.50;2.30;;;10.30;99.90;;;;;;5095187;28;20315;-76
2021/12/31 06:21:15;;;;;;;3.35;2.80;;;10.20;99.90;;;;;;5106410;28;20194;-76
2021/12/31 06:23:44;;;;;;;2.63;2.40;;;10.20;99.90;;;;;;5091250;28;20223;-76
2021/12/31 06:26:11;;;;;;;2.53;2.28;;;10.10;99.90;;;;;;5093327;28;20244;-76
2021/12/31 06:28:37;;;;;;;3.33;3.05;;;10.10;99.90;;;;;;5097569;28;20568;-76
2021/12/31 06:31:04;;;;;;;2.85;2.42;;;10.10;99.90;;;;;;5097741;28;20197;-76
2021/12/31 06:33:31;;;;;;;2.67;2.40;;;10.00;99.90;;;;;;5091784;28;20637;-76
2021/12/31 06:35:58;;;;;;;4.05;2.60;;;10.00;99.90;;;;;;5101939;28;20259;-76
2021/12/31 06:38:25;;;;;;;3.20;2.35;;;10.00;99.90;;;;;;5102856;28;20546;-77
2021/12/31 06:40:54;;;;;;;2.90;2.70;;;9.90;99.90;;;;;;5104185;28;20207;-75
2021/12/31 06:43:21;;;;;;;3.47;3.15;;;9.80;99.90;;;;;;5093502;28;20612;-77
2021/12/31 06:45:47;;;;;;;2.55;2.35;;;9.80;99.90;;;;;;5097970;28;20213;-77
2021/12/31 06:48:14;;;;;;;2.75;2.40;;;9.80;99.90;;;;;;5098859;28;20240;-76
2021/12/31 06:50:41;;;;;;;2.55;2.35;;;9.80;99.90;;;;;;5097849;28;20246;-77
2021/12/31 06:53:08;;;;;;;3.38;3.00;;;9.70;99.90;;;;;;5104190;28;20280;-76
2021/12/31 06:55:35;;;;;;;2.92;2.38;;;9.70;99.90;;;;;;5099628;28;20200;-76
2021/12/31 06:58:03;;;;;;;3.13;2.83;;;9.70;99.90;;;;;;5099587;28;20233;-76
2021/12/31 07:00:31;;;;;;;2.97;2.45;;;9.70;99.90;;;;;;5096062;28;20291;-76
2021/12/31 07:03:06;;;;;;;3.38;3.03;;;9.70;99.90;;;;;;5095473;28;20215;-77
2021/12/31 07:05:33;;;;;;;3.00;2.70;;;9.60;99.90;;;;;;5094371;28;20228;-76
2021/12/31 07:08:00;;;;;;;3.60;2.40;;;9.60;99.90;;;;;;5098362;28;20211;-76
2021/12/31 07:10:27;;;;;;;3.25;2.65;;;9.60;99.90;;;;;;5099777;28;20207;-76
2021/12/31 07:12:58;;;;;;;3.80;3.03;;;9.60;99.90;;;;;;5107816;28;20304;-76
2021/12/31 07:15:26;;;;;;;2.90;2.70;;;9.50;99.90;;;;;;5094238;28;20196;-76
2021/12/31 07:17:53;;;;;;;3.42;3.13;;;9.50;99.90;;;;;;5094091;28;20730;-77
2021/12/31 07:20:21;;;;;;;3.38;3.05;;;9.50;99.90;;;;;;5093545;28;20226;-76
2021/12/31 07:22:48;;;;;;;2.80;2.60;;;9.40;99.90;;;;;;5100999;28;20226;-76
2021/12/31 07:25:14;;;;;;;3.42;3.13;;;9.40;99.90;;;;;;5095985;28;20193;-76
2021/12/31 07:27:41;;;;;;;3.00;2.70;;;9.40;99.90;;;;;;5096563;28;20208;-77
2021/12/31 07:30:10;;;;;;;5.65;3.10;;;9.40;99.90;;;;;;5104067;28;20227;-76
2021/12/31 07:32:39;;;;;;;4.13;3.13;;;9.40;99.90;;;;;;5095347;28;20220;-77
2021/12/31 07:35:06;;;;;;;3.22;2.90;;;9.40;99.90;;;;;;5104841;28;20296;-77
2021/12/31 07:37:33;;;;;;;4.68;2.88;;;9.40;99.90;;;;;;5106270;28;20192;-76
2021/12/31 07:40:04;;;;;;;3.67;3.33;;;9.40;99.90;;;;;;5100141;28;20217;-76
2021/12/31 07:42:30;;;;;;;3.20;2.90;;;9.40;99.90;;;;;;5103059;28;20211;-76
2021/12/31 07:44:57;;;;;;;3.40;3.10;;;9.40;99.90;;;;;;5095371;28;20297;-77
2021/12/31 07:47:24;;;;;;;3.90;3.15;;;9.40;99.90;;;;;;5095065;28;20288;-76
2021/12/31 07:49:53;;;;;;;3.40;3.10;;;9.50;99.90;;;;;;5107823;28;20732;-89
2021/12/31 07:52:20;;;;;;;3.83;3.35;;;9.50;99.90;;;;;;5090844;28;20239;-77
2021/12/31 07:54:47;;;;;;;3.83;3.45;;;9.50;99.90;;;;;;5085443;28;20309;-76
2021/12/31 07:57:14;;;;;;;3.47;3.17;;;9.50;99.90;;;;;;5091339;28;20232;-74
2021/12/31 07:59:41;;;;;;;3.70;3.40;;;9.50;99.90;;;;;;5096787;28;20225;-76
2021/12/31 08:02:09;;;;;;;4.57;3.22;;;9.60;99.90;;;;;;5090989;28;20219;-77
2021/12/31 08:04:36;;;;;;;3.63;3.33;;;9.60;99.90;;;;;;5100883;28;20842;-77
2021/12/31 08:07:04;;;;;;;3.75;3.20;;;9.60;99.90;;;;;;5098304;28;20215;-77
2021/12/31 08:09:31;;;;;;;3.53;3.22;;;9.60;99.90;;;;;;5101974;28;20286;-78
2021/12/31 08:11:58;;;;;;;3.45;3.15;;;9.60;99.90;;;;;;5098204;28;20245;-77
2021/12/31 08:14:25;;;;;;;4.93;3.28;;;9.60;99.90;;;;;;5099013;28;20210;-77
2021/12/31 08:16:52;;;;;;;3.65;3.33;;;9.70;99.90;;;;;;5104131;28;20722;-77
2021/12/31 08:19:19;;;;;;;3.30;3.10;;;9.70;99.90;;;;;;5098519;28;20224;-77
2021/12/31 08:21:46;;;;;;;4.00;3.05;;;9.80;99.90;;;;;;5096958;28;20715;-77
2021/12/31 08:24:14;;;;;;;4.03;3.45;;;9.80;99.90;;;;;;5095402;28;20204;-77
2021/12/31 08:26:42;;;;;;;3.92;3.58;;;9.90;99.90;;;;;;5096610;28;20644;-77
2021/12/31 08:29:12;;;;;;;4.07;3.50;;;9.90;99.90;;;;;;5104960;28;20290;-77
2021/12/31 08:31:39;;;;;;;4.10;2.72;;;10.00;99.90;;;;;;5105550;28;20247;-77
2021/12/31 08:34:07;;;;;;;3.83;3.53;;;10.10;99.90;;;;;;5101937;28;20309;-77
2021/12/31 08:36:34;;;;;;;4.25;3.53;;;10.20;99.90;;;;;;5094127;28;20667;-77
2021/12/31 08:39:01;;;;;;;3.45;3.15;;;10.30;99.90;;;;;;5094465;28;20194;-77
2021/12/31 08:41:29;;;;;;;3.50;3.30;;;10.30;99.90;;;;;;5094507;28;20349;-77
2021/12/31 08:43:57;;;;;;;3.80;3.50;;;10.30;99.90;;;;;;5094352;28;20195;-77
2021/12/31 08:46:24;;;;;;;3.38;3.00;;;10.60;99.90;;;;;;5094592;28;20191;-77
2021/12/31 08:48:50;;;;;;;3.20;3.00;;;10.70;99.90;;;;;;5102403;28;20269;-77
2021/12/31 08:51:18;;;;;;;3.22;2.92;;;10.80;99.90;;;;;;5094232;28;20202;-77
2021/12/31 08:53:45;;;;;;;3.40;3.10;;;10.90;99.90;;;;;;5094495;28;20275;-77
2021/12/31 08:56:12;;;;;;;3.28;2.90;;;11.00;99.90;;;;;;5101133;28;20650;-77
2021/12/31 08:58:40;;;;;;;3.10;2.90;;;11.00;99.90;;;;;;5094607;28;20668;-77
2021/12/31 09:01:07;;;;;;;4.55;3.08;;;11.10;99.90;;;;;;5093393;28;20216;-77
2021/12/31 09:03:34;;;;;;;3.45;2.72;;;11.40;99.90;;;;;;5103586;28;20195;-77
2021/12/31 09:06:01;;;;;;;3.50;3.20;;;12.10;99.90;;;;;;5099446;28;21865;-78
2021/12/31 09:08:28;;;;;;;2.40;2.20;;;13.00;99.90;;;;;;5089406;27;20300;-78
2021/12/31 09:10:54;;;;;;;3.10;2.80;;;13.80;99.90;;;;;;5105722;28;20545;-77
2021/12/31 09:13:22;;;;;;;2.63;2.33;;;14.50;99.90;;;;;;5104495;28;20516;-77
2021/12/31 09:15:50;;;;;;;2.37;2.17;;;15.10;99.90;;;;;;5107759;28;20531;-78
2021/12/31 09:18:17;;;;;;;2.30;2.10;;;15.60;99.90;;;;;;5104597;28;20540;-77
2021/12/31 09:20:44;;;;;;;2.47;2.27;;;16.10;99.90;;;;;;5094542;28;20491;-77
2021/12/31 09:23:10;;;;;;;2.70;2.50;;;16.60;99.90;;;;;;5097877;27;20503;-78
2021/12/31 09:25:37;;;;;;;2.90;2.70;;;17.10;99.90;;;;;;5105736;28;20553;-78
2021/12/31 09:28:05;;;;;;;2.90;2.70;;;17.60;99.90;;;;;;5100493;28;20790;-78
2021/12/31 09:30:31;;;;;;;2.70;2.50;;;17.90;99.90;;;;;;5094120;28;20464;-78
2021/12/31 09:33:00;;;;;;;3.33;3.03;;;18.10;99.90;;;;;;5098581;28;20468;-78
2021/12/31 09:35:27;;;;;;;2.90;2.70;;;18.60;99.90;;;;;;5096004;28;20488;-77
2021/12/31 09:37:54;;;;;;;3.00;2.80;;;19.10;99.90;;;;;;5102130;28;20878;-77
2021/12/31 09:40:21;;;;;;;3.70;3.00;;;19.20;99.90;;;;;;5102836;28;20919;-78
2021/12/31 09:43:01;;;;;;;3.57;3.03;;;19.10;99.90;;;;;;5096372;28;21025;-77
2021/12/31 09:45:28;;;;;;;3.10;2.80;;;19.10;99.90;;;;;;5101394;28;20467;-77
2021/12/31 09:47:59;;;;;;;3.50;3.20;;;19.20;99.90;;;;;;5101257;28;20457;-77
2021/12/31 09:50:28;;;;;;;3.10;2.90;;;19.40;99.90;;;;;;5096137;28;20837;-77
2021/12/31 09:52:55;;;;;;;3.53;3.23;;;19.60;99.90;;;;;;5107758;28;20820;-78
2021/12/31 09:55:37;;;;;;;3.30;3.00;;;19.50;99.90;;;;;;5100649;28;20456;-77
2021/12/31 09:58:04;;;;;;;3.70;3.40;;;19.50;99.90;;;;;;5091282;28;20667;-77
2021/12/31 10:00:31;;;;;;;3.03;2.80;;;19.50;99.90;;;;;;5088034;28;20481;-78
2021/12/31 10:03:12;;;;;;;2.93;2.53;;;19.50;99.90;;;;;;5094650;27;20477;-77
2021/12/31 10:05:43;;;;;;;3.27;3.00;;;19.70;99.90;;;;;;5097527;27;20476;-78
2021/12/31 10:08:14;;;;;;;3.33;3.13;;;19.50;99.90;;;;;;5100183;28;20527;-77
2021/12/31 10:10:42;;;;;;;3.43;3.13;;;19.50;99.90;;;;;;5098746;28;20454;-78
2021/12/31 10:13:09;;;;;;;3.13;2.93;;;19.50;99.90;;;;;;5105620;28;20461;-78
2021/12/31 10:15:40;;;;;;;3.43;3.23;;;19.80;99.90;;;;;;5102948;28;20521;-77
2021/12/31 10:18:12;;;;;;;3.27;2.83;;;19.90;99.90;;;;;;5096878;28;20817;-78
2021/12/31 10:20:50;;;;;;;3.90;2.83;;;19.70;99.90;;;;;;5101895;28;20481;-78
2021/12/31 10:23:20;;;;;;;3.27;2.80;;;19.80;99.90;;;;;;5091272;28;20861;-77
2021/12/31 10:25:47;;;;;;;3.80;3.50;;;20.00;99.90;;;;;;5108472;28;20536;-77
2021/12/31 10:28:16;;;;;;;3.60;3.30;;;20.30;99.90;;;;;;5113080;27;20449;-78
2021/12/31 10:30:44;;;;;;;3.17;2.97;;;20.40;99.90;;;;;;5096833;28;20462;-77
2021/12/31 10:33:11;;;;;;;3.10;2.90;;;20.80;99.90;;;;;;5094129;27;20483;-78
2021/12/31 10:35:40;;;;;;;3.67;3.37;;;21.20;99.90;;;;;;5097270;28;20449;-78
2021/12/31 10:38:11;;;;;;;3.30;3.07;;;21.30;99.90;;;;;;5110297;28;20468;-78
2021/12/31 10:40:41;;;;;;;3.43;3.23;;;21.50;99.90;;;;;;5092758;28;20562;-77
2021/12/31 10:43:15;;;;;;;3.37;3.07;;;21.60;99.90;;;;;;5104064;28;21236;-80
2021/12/31 10:45:56;;;;;;;3.10;2.90;;;21.50;99.90;;;;;;5089331;27;20974;-77
2021/12/31 10:48:38;;;;;;;3.03;2.83;;;21.90;99.90;;;;;;5085894;28;20464;-77
2021/12/31 10:51:05;;;;;;;3.60;3.30;;;22.30;99.90;;;;;;5094064;28;20468;-76
2021/12/31 10:53:34;;;;;;;3.00;2.80;;;22.60;99.90;;;;;;5098417;28;20480;-77
2021/12/31 10:56:10;;;;;;;2.90;2.70;;;22.60;99.90;;;;;;5094626;28;20586;-78
2021/12/31 10:58:39;;;;;;;4.50;3.60;;;22.60;99.90;;;;;;5104234;28;20472;-77
2021/12/31 11:01:08;;;;;;;3.90;3.57;;;22.40;99.90;;;;;;5102937;28;20496;-78
2021/12/31 11:03:36;;;;;;;3.50;3.20;;;21.90;99.90;;;;;;5095092;28;20447;-77
2021/12/31 11:06:04;;;;;;;3.37;3.07;;;22.00;99.90;;;;;;5098148;28;20456;-77
2021/12/31 11:08:33;;;;;;;3.40;2.70;;;22.20;99.90;;;;;;5097050;28;20880;-77
2021/12/31 11:11:02;;;;;;;5.57;3.37;;;22.10;99.90;;;;;;5099716;28;20507;-77
2021/12/31 11:13:30;;;;;;;3.20;2.90;;;21.80;99.90;;;;;;5105189;28;20455;-77
2021/12/31 11:15:59;;;;;;;3.23;2.93;;;21.80;99.90;;;;;;5099561;28;20542;-77
2021/12/31 11:18:26;;;;;;;3.60;3.30;;;21.80;99.90;;;;;;5102865;28;20837;-77
2021/12/31 11:20:55;;;;;;;3.10;2.90;;;21.50;99.90;;;;;;5095671;28;20564;-77
2021/12/31 11:23:26;;;;;;;3.00;2.80;;;21.20;99.90;;;;;;5102413;28;20489;-77
2021/12/31 11:25:57;;;;;;;3.10;2.80;;;21.20;99.90;;;;;;5099567;28;20926;-77
2021/12/31 11:28:26;;;;;;;2.90;2.70;;;21.20;99.90;;;;;;5092555;28;20485;-77
2021/12/31 11:30:56;;;;;;;2.63;2.43;;;21.00;99.90;;;;;;5093570;28;20488;-79
2021/12/31 11:33:28;;;;;;;2.40;2.30;;;20.80;99.90;;;;;;5093940;28;20453;-86
2021/12/31 11:36:00;;;;;;;2.93;2.73;;;20.50;99.90;;;;;;5098537;28;20482;-86
2021/12/31 11:38:44;;;;;;;2.30;2.20;;;20.10;99.90;;;;;;5095814;28;20469;-84
2021/12/31 11:41:14;;;;;;;2.07;1.90;;;19.70;99.90;;;;;;5096756;28;20508;-82
2021/12/31 11:43:42;;;;;;;2.73;2.53;;;19.60;99.90;;;;;;5097778;28;20544;-86
2021/12/31 11:46:36;;;;;;;2.60;2.40;;;19.60;99.90;;;;;;5087223;28;21002;-81
2021/12/31 11:49:10;;;;;;;2.60;2.17;;;19.70;99.90;;;;;;5099619;28;20457;-77
2021/12/31 11:51:55;;;;;;;2.43;2.23;;;20.10;99.90;;;;;;5093217;28;20555;-78
2021/12/31 11:54:22;;;;;;;2.40;2.20;;;20.10;99.90;;;;;;5102938;28;20464;-78
2021/12/31 11:57:16;;;;;;;2.17;2.07;;;20.00;99.90;;;;;;5095722;28;20980;-78
2021/12/31 11:59:50;;;;;;;2.67;2.47;;;20.10;99.90;;;;;;5091533;28;20456;-77
2021/12/31 12:02:20;;;;;;;2.37;2.17;;;20.20;99.90;;;;;;5104608;28;20481;-78
2021/12/31 12:05:07;;;;;;;2.30;2.10;;;20.50;99.90;;;;;;5096221;28;20831;-79
2021/12/31 12:07:36;;;;;;;2.10;2.00;;;20.60;99.90;;;;;;5109930;28;20462;-79
2021/12/31 12:10:14;;;;;;;2.30;2.10;;;20.80;99.90;;;;;;5101613;28;20464;-80
2021/12/31 12:12:49;;;;;;;2.57;2.10;;;21.20;99.90;;;;;;5083855;28;20467;-78
2021/12/31 12:15:40;;;;;;;2.07;1.87;;;21.20;99.90;;;;;;5105347;28;20532;-78
2021/12/31 12:18:08;;;;;;;3.27;2.20;;;21.20;99.90;;;;;;5096724;28;20498;-78
2021/12/31 12:20:40;;;;;;;2.50;2.30;;;21.00;99.90;;;;;;5097341;28;21011;-78
2021/12/31 12:23:12;;;;;;;3.00;2.70;;;21.10;99.90;;;;;;5096349;28;20449;-78
2021/12/31 12:25:40;;;;;;;3.00;2.80;;;21.20;99.90;;;;;;5102320;28;20460;-79
2021/12/31 12:28:11;;;;;;;3.40;3.17;;;21.20;99.90;;;;;;5124286;28;20461;-77
2021/12/31 12:30:43;;;;;;;3.10;2.60;;;21.20;99.90;;;;;;5117567;28;20480;-76
2021/12/31 12:33:17;;;;;;;3.13;2.93;;;21.50;99.90;;;;;;5119178;28;20523;-78
2021/12/31 12:35:46;;;;;;;3.80;3.50;;;21.70;99.90;;;;;;5100777;28;20515;-77
2021/12/31 12:38:18;;;;;;;3.43;3.23;;;21.00;99.90;;;;;;5101652;28;20449;-78
2021/12/31 12:40:47;;;;;;;3.93;3.63;;;20.40;99.90;;;;;;5109208;28;20477;-77
2021/12/31 12:43:18;;;;;;;3.77;3.47;;;20.10;99.90;;;;;;5114645;28;20545;-78
2021/12/31 12:45:48;;;;;;;4.10;3.80;;;19.70;99.90;;;;;;5119172;28;20440;-76
2021/12/31 12:48:16;;;;;;;4.20;3.90;;;18.90;99.90;;;;;;5113436;28;20510;-77
2021/12/31 12:50:50;;;;;;;4.10;3.80;;;18.50;99.90;;;;;;5113241;28;20479;-77
2021/12/31 12:53:22;;;;;;;4.00;3.70;;;17.60;99.90;;;;;;5096523;28;20829;-78
2021/12/31 12:55:50;;;;;;;4.70;4.30;;;17.10;99.90;;;;;;5092207;27;20543;-77